Time;durP1;ratioP1;P1;durP2;ratioP2;P2;SDS_P1;SDS_P2;PMS_P1;PMS_P2;Temp;Humidity;BMP_temperature;BMP_pressure;BME280_temperature;BME280_humidity;BME280_pressure;Samples;Min_cycle;Max_cycle;Signal;HPM_P1;HPM_P2
2022/03/05 00:01:10;;;;;;;0.40;0.30;;;;;;;0.43;82.64;101961.25;5092270;28;20524;-71
2022/03/05 00:03:36;;;;;;;0.40;0.30;;;;;;;0.36;82.76;101961.22;5093847;28;20833;-70
2022/03/05 00:06:03;;;;;;;0.40;0.30;;;;;;;0.44;83.06;101966.41;5092701;28;20452;-70
2022/03/05 00:08:29;;;;;;;0.77;0.77;;;;;;;0.40;82.24;101956.31;5092391;28;20471;-71
2022/03/05 00:10:56;;;;;;;0.40;0.30;;;;;;;0.35;82.72;101961.41;5092962;28;20946;-71
2022/03/05 00:13:22;;;;;;;0.40;0.30;;;;;;;0.37;82.40;101959.38;5092011;28;20460;-71
2022/03/05 00:15:49;;;;;;;0.40;0.30;;;;;;;0.36;81.87;101952.41;5093890;28;20436;-71
2022/03/05 00:18:16;;;;;;;0.40;0.30;;;;;;;0.29;82.39;101956.88;5092442;28;20480;-71
2022/03/05 00:20:44;;;;;;;0.40;0.30;;;;;;;0.29;83.11;101951.56;5094081;28;20451;-72
2022/03/05 00:23:11;;;;;;;0.40;0.30;;;;;;;0.24;82.69;101950.31;5089129;28;20465;-72
2022/03/05 00:25:38;;;;;;;0.40;0.30;;;;;;;0.16;83.16;101954.97;5094024;28;20484;-72
2022/03/05 00:28:04;;;;;;;0.40;0.30;;;;;;;0.21;83.05;101950.69;5091338;28;20539;-72
2022/03/05 00:30:31;;;;;;;0.40;0.30;;;;;;;0.21;83.70;101956.03;5092315;28;20456;-71
2022/03/05 00:32:58;;;;;;;0.40;0.30;;;;;;;0.31;83.45;101957.50;5084812;28;20456;-71
2022/03/05 00:35:25;;;;;;;0.40;0.30;;;;;;;0.16;83.42;101947.81;5093299;28;20480;-71
2022/03/05 00:37:52;;;;;;;0.40;0.30;;;;;;;0.08;83.54;101947.97;5093977;28;20443;-71
2022/03/05 00:40:18;;;;;;;3.50;3.30;;;;;;;0.03;84.06;101947.75;5092077;28;20460;-71
2022/03/05 00:42:45;;;;;;;0.40;0.30;;;;;;;0.02;83.58;101939.97;5091147;28;20460;-71
2022/03/05 00:45:11;;;;;;;0.40;0.30;;;;;;;-0.01;83.89;101946.50;5092909;28;20492;-71
2022/03/05 00:47:38;;;;;;;0.40;0.30;;;;;;;0.03;83.67;101944.25;5093888;28;20441;-71
2022/03/05 00:50:07;;;;;;;0.50;0.30;;;;;;;0.15;83.88;101953.34;5092622;28;20460;-71
2022/03/05 00:52:35;;;;;;;0.40;0.30;;;;;;;-0.02;83.50;101951.00;5090462;28;20543;-72
2022/03/05 00:55:02;;;;;;;0.40;0.30;;;;;;;-0.12;83.56;101950.53;5091946;28;21012;-73
2022/03/05 00:57:28;;;;;;;2.17;2.07;;;;;;;-0.12;83.80;101944.41;5092779;28;20473;-73
2022/03/05 00:59:55;;;;;;;0.40;0.30;;;;;;;-0.23;83.97;101950.25;5092865;28;20468;-73
2022/03/05 01:02:21;;;;;;;0.40;0.30;;;;;;;-0.26;84.77;101954.97;5092724;28;20697;-74
2022/03/05 01:04:48;;;;;;;0.40;0.30;;;;;;;-0.23;84.49;101951.09;5092745;28;20498;-73
2022/03/05 01:07:14;;;;;;;0.40;0.30;;;;;;;-0.28;84.35;101954.31;5091981;28;20956;-73
2022/03/05 01:09:42;;;;;;;1.53;1.43;;;;;;;-0.24;83.86;101948.63;5093511;28;20440;-73
2022/03/05 01:12:09;;;;;;;0.40;0.30;;;;;;;-0.35;84.37;101942.84;5092692;28;20473;-73
2022/03/05 01:14:36;;;;;;;0.40;0.30;;;;;;;-0.39;85.34;101948.75;5093352;28;20456;-72
2022/03/05 01:17:02;;;;;;;0.40;0.30;;;;;;;-0.42;85.32;101949.13;5091438;28;20502;-72
2022/03/05 01:19:29;;;;;;;0.40;0.30;;;;;;;-0.43;84.51;101950.97;5082682;28;20471;-73
2022/03/05 01:21:55;;;;;;;0.40;0.30;;;;;;;-0.46;84.15;101959.31;5093237;28;20452;-72
2022/03/05 01:24:22;;;;;;;0.40;0.30;;;;;;;-0.36;84.26;101949.16;5092406;28;20488;-72
2022/03/05 01:26:49;;;;;;;0.40;0.30;;;;;;;-0.37;84.40;101946.69;5092314;28;20460;-73
2022/03/05 01:29:16;;;;;;;0.40;0.30;;;;;;;-0.39;84.18;101951.41;5097845;28;20451;-73
2022/03/05 01:31:42;;;;;;;0.40;0.30;;;;;;;-0.51;84.00;101951.94;5099754;28;20800;-72
2022/03/05 01:34:09;;;;;;;0.40;0.30;;;;;;;-0.67;84.92;101946.06;5098917;28;21000;-72
2022/03/05 01:36:35;;;;;;;0.40;0.30;;;;;;;-0.67;85.18;101954.03;5096641;28;20474;-72
2022/03/05 01:39:02;;;;;;;0.40;0.30;;;;;;;-0.62;84.98;101946.31;5099961;28;20462;-70
2022/03/05 01:41:29;;;;;;;0.40;0.30;;;;;;;-0.67;85.58;101941.56;5098751;28;20875;-71
2022/03/05 01:43:58;;;;;;;0.40;0.30;;;;;;;-0.60;85.54;101937.13;5097767;28;20484;-71
2022/03/05 01:46:29;;;;;;;0.40;0.30;;;;;;;-0.54;85.94;101946.16;5098660;28;20444;-72
2022/03/05 01:48:56;;;;;;;0.40;0.30;;;;;;;-0.62;86.73;101939.16;5084804;28;21071;-71
2022/03/05 01:51:22;;;;;;;0.40;0.30;;;;;;;-0.65;86.73;101936.88;5098035;28;20444;-71
2022/03/05 01:53:49;;;;;;;0.40;0.30;;;;;;;-0.61;85.94;101929.34;5098139;28;20487;-71
2022/03/05 01:56:17;;;;;;;0.40;0.30;;;;;;;-0.60;85.80;101931.81;5099844;28;20498;-71
2022/03/05 01:58:43;;;;;;;0.40;0.30;;;;;;;-0.62;85.81;101928.53;5098048;28;20467;-72
2022/03/05 02:01:11;;;;;;;0.40;0.30;;;;;;;-0.60;86.24;101930.97;5097728;28;20842;-71
2022/03/05 02:03:38;;;;;;;0.40;0.30;;;;;;;-0.58;85.41;101931.59;5098797;28;20452;-71
2022/03/05 02:06:05;;;;;;;0.40;0.30;;;;;;;-0.58;85.22;101928.94;5099649;28;20507;-71
2022/03/05 02:08:31;;;;;;;0.40;0.30;;;;;;;-0.54;84.79;101927.53;5097406;28;20521;-71
2022/03/05 02:10:57;;;;;;;0.40;0.30;;;;;;;-0.65;84.57;101928.09;5092185;28;20448;-71
2022/03/05 02:13:24;;;;;;;0.40;0.30;;;;;;;-0.74;85.61;101923.94;5087237;28;20451;-71
2022/03/05 02:15:54;;;;;;;0.40;0.30;;;;;;;-0.96;86.32;101923.94;5095872;28;20475;-71
2022/03/05 02:18:22;;;;;;;0.40;0.30;;;;;;;-0.94;86.67;101913.09;5099266;28;20460;-71
2022/03/05 02:20:49;;;;;;;0.40;0.30;;;;;;;-1.03;87.06;101918.56;5097758;28;20803;-71
2022/03/05 02:23:16;;;;;;;0.40;0.30;;;;;;;-1.10;87.38;101922.19;5099579;28;20463;-71
2022/03/05 02:25:52;;;;;;;0.40;0.30;;;;;;;-1.11;86.85;101920.53;5097524;28;20492;-71
2022/03/05 02:28:19;;;;;;;0.83;0.83;;;;;;;-1.11;86.39;101920.53;5098573;28;20502;-71
2022/03/05 02:30:45;;;;;;;0.40;0.30;;;;;;;-1.02;85.70;101919.38;5098621;28;20568;-71
2022/03/05 02:33:12;;;;;;;0.40;0.30;;;;;;;-1.08;85.61;101928.94;5098676;28;20449;-71
2022/03/05 02:35:38;;;;;;;0.40;0.30;;;;;;;-1.10;86.10;101917.69;5081106;28;20457;-71
2022/03/05 02:38:06;;;;;;;0.40;0.30;;;;;;;-1.14;87.27;101918.25;5089806;28;20460;-71
2022/03/05 02:40:34;;;;;;;0.40;0.30;;;;;;;-1.14;86.28;101911.09;5091554;28;20467;-68
2022/03/05 02:43:01;;;;;;;0.40;0.30;;;;;;;-1.17;86.60;101908.00;5095552;28;20851;-71
2022/03/05 02:45:27;;;;;;;0.40;0.30;;;;;;;-1.21;87.12;101907.56;5094707;28;20492;-72
2022/03/05 02:47:54;;;;;;;0.40;0.30;;;;;;;-1.27;86.57;101914.47;5096105;28;20443;-71
2022/03/05 02:50:20;;;;;;;0.40;0.30;;;;;;;-1.35;86.92;101911.94;5092661;28;20461;-72
2022/03/05 02:52:46;;;;;;;0.70;0.70;;;;;;;-1.31;87.56;101904.41;5091819;28;20988;-71
2022/03/05 02:55:14;;;;;;;0.40;0.30;;;;;;;-1.21;88.22;101918.19;5090496;28;20510;-72
2022/03/05 02:57:41;;;;;;;0.40;0.30;;;;;;;-1.25;87.27;101916.09;5095902;28;20494;-71
2022/03/05 03:00:09;;;;;;;0.40;0.30;;;;;;;-1.39;87.50;101907.19;5092263;28;20464;-72
2022/03/05 03:02:45;;;;;;;0.40;0.40;;;;;;;-1.43;87.87;101909.38;5091686;28;20870;-70
2022/03/05 03:05:12;;;;;;;0.40;0.30;;;;;;;-1.40;87.59;101914.34;5092673;28;20570;-70
2022/03/05 03:07:39;;;;;;;0.40;0.30;;;;;;;-1.32;86.71;101911.56;5095715;28;20459;-70
2022/03/05 03:10:06;;;;;;;0.40;0.30;;;;;;;-1.31;86.72;101907.06;5092999;28;20459;-71
2022/03/05 03:12:34;;;;;;;0.40;0.30;;;;;;;-1.31;86.46;101913.19;5088436;28;20453;-70
2022/03/05 03:15:01;;;;;;;0.40;0.30;;;;;;;-1.46;86.96;101909.78;5095483;28;20464;-70
2022/03/05 03:17:27;;;;;;;0.40;0.30;;;;;;;-1.43;87.39;101909.38;5094084;28;20476;-71
2022/03/05 03:19:54;;;;;;;0.40;0.30;;;;;;;-1.43;86.60;101908.56;5095136;28;20870;-71
2022/03/05 03:22:20;;;;;;;0.40;0.30;;;;;;;-1.45;86.91;101911.41;5093636;28;20463;-72
2022/03/05 03:24:47;;;;;;;0.40;0.30;;;;;;;-1.55;87.15;101903.75;5094290;28;21036;-72
2022/03/05 03:27:13;;;;;;;0.40;0.30;;;;;;;-1.62;87.51;101902.03;5094425;28;20513;-71
2022/03/05 03:29:41;;;;;;;0.40;0.30;;;;;;;-1.59;88.20;101904.31;5094543;28;20467;-71
2022/03/05 03:32:08;;;;;;;0.40;0.30;;;;;;;-1.65;88.58;101907.72;5095249;28;20448;-71
2022/03/05 03:34:35;;;;;;;0.40;0.30;;;;;;;-1.72;88.38;101912.16;5093653;28;20484;-71
2022/03/05 03:37:01;;;;;;;0.83;0.83;;;;;;;-1.79;88.84;101909.41;5096487;28;20460;-71
2022/03/05 03:39:28;;;;;;;0.40;0.30;;;;;;;-1.79;88.99;101909.41;5092357;28;20960;-72
2022/03/05 03:41:54;;;;;;;0.40;0.30;;;;;;;-1.78;88.72;101911.84;5095060;28;20519;-71
2022/03/05 03:44:20;;;;;;;0.40;0.30;;;;;;;-1.79;88.75;101910.22;5091791;28;20475;-71
2022/03/05 03:46:48;;;;;;;0.40;0.30;;;;;;;-1.83;89.06;101913.44;5094861;28;20479;-71
2022/03/05 03:49:15;;;;;;;0.40;0.30;;;;;;;-1.75;89.33;101909.84;5092017;28;20490;-71
2022/03/05 03:51:41;;;;;;;0.40;0.30;;;;;;;-1.68;88.35;101916.06;5083384;28;20511;-71
2022/03/05 03:54:07;;;;;;;0.40;0.30;;;;;;;-1.79;88.58;101914.72;5074340;28;21024;-71
2022/03/05 03:56:34;;;;;;;0.40;0.30;;;;;;;-1.90;88.42;101918.69;5093926;28;20460;-71
2022/03/05 03:59:00;;;;;;;3.57;3.30;;;;;;;-1.95;89.08;101921.03;5091927;28;20463;-71
2022/03/05 04:01:27;;;;;;;0.40;0.30;;;;;;;-1.85;88.80;101921.59;5094672;28;20537;-71
2022/03/05 04:03:55;;;;;;;0.40;0.30;;;;;;;-1.89;88.38;101930.13;5088673;28;20558;-71
2022/03/05 04:06:21;;;;;;;0.40;0.30;;;;;;;-1.95;88.86;101926.34;5090970;28;20487;-71
2022/03/05 04:08:47;;;;;;;0.40;0.30;;;;;;;-2.00;88.92;101927.91;5092142;28;20965;-72
2022/03/05 04:11:18;;;;;;;0.40;0.30;;;;;;;-2.09;89.25;101928.00;5090853;28;20464;-70
2022/03/05 04:13:45;;;;;;;0.40;0.30;;;;;;;-2.12;89.39;101931.06;5086704;28;21031;-71
2022/03/05 04:16:12;;;;;;;0.40;0.30;;;;;;;-2.13;89.56;101928.56;5094408;28;20531;-71
2022/03/05 04:18:39;;;;;;;0.40;0.30;;;;;;;-2.16;89.31;101929.78;5091113;28;20909;-72
2022/03/05 04:21:08;;;;;;;0.60;0.60;;;;;;;-2.03;88.58;101929.13;5094724;28;20432;-71
2022/03/05 04:23:35;;;;;;;0.40;0.30;;;;;;;-2.07;88.83;101933.97;5093364;28;20490;-71
2022/03/05 04:26:02;;;;;;;0.40;0.30;;;;;;;-2.00;88.75;101927.91;5093329;28;20546;-71
2022/03/05 04:28:28;;;;;;;0.50;0.50;;;;;;;-2.06;90.49;101937.44;5092297;28;20510;-71
2022/03/05 04:30:54;;;;;;;0.40;0.30;;;;;;;-1.98;89.97;101931.22;5092940;28;20460;-71
2022/03/05 04:33:21;;;;;;;0.40;0.30;;;;;;;-2.06;88.98;101930.31;5092821;28;20460;-71
2022/03/05 04:35:47;;;;;;;0.50;0.50;;;;;;;-2.04;89.02;101933.63;5094000;28;20489;-71
2022/03/05 04:38:15;;;;;;;0.40;0.30;;;;;;;-2.09;88.41;101933.31;5092131;28;20456;-71
2022/03/05 04:40:41;;;;;;;0.40;0.30;;;;;;;-2.07;88.88;101930.50;5087743;28;20497;-72
2022/03/05 04:43:08;;;;;;;0.40;0.30;;;;;;;-2.17;89.56;101937.91;5090389;28;20513;-71
2022/03/05 04:45:34;;;;;;;0.40;0.30;;;;;;;-2.19;89.78;101930.13;5088600;28;20496;-70
2022/03/05 04:48:01;;;;;;;0.40;0.30;;;;;;;-2.20;90.52;101933.78;5089531;28;20460;-72
2022/03/05 04:50:27;;;;;;;0.40;0.30;;;;;;;-2.21;88.63;101936.63;5091387;28;20467;-72
2022/03/05 04:52:54;;;;;;;0.40;0.30;;;;;;;-2.21;89.12;101942.78;5085891;28;20475;-73
2022/03/05 04:55:21;;;;;;;0.40;0.30;;;;;;;-2.23;88.65;101941.28;5092260;28;20859;-71
2022/03/05 04:57:48;;;;;;;0.40;0.30;;;;;;;-2.36;88.63;101940.09;5090699;28;20469;-72
2022/03/05 05:00:15;;;;;;;0.40;0.30;;;;;;;-2.48;89.89;101952.16;5093287;28;20786;-72
2022/03/05 05:02:42;;;;;;;0.40;0.30;;;;;;;-2.38;90.47;101947.41;5085946;28;20896;-73
2022/03/05 05:05:08;;;;;;;0.40;0.30;;;;;;;-2.47;91.21;101945.03;5091214;28;20484;-72
2022/03/05 05:07:35;;;;;;;0.40;0.30;;;;;;;-2.42;90.62;101946.13;5087709;28;20452;-73
2022/03/05 05:10:01;;;;;;;0.50;0.40;;;;;;;-2.21;89.62;101947.22;5089445;28;20543;-72
2022/03/05 05:12:29;;;;;;;0.40;0.30;;;;;;;-2.26;89.61;101944.31;5089038;28;20473;-72
2022/03/05 05:14:56;;;;;;;0.40;0.30;;;;;;;-2.36;88.73;101952.53;5089562;28;20945;-73
2022/03/05 05:17:22;;;;;;;0.40;0.30;;;;;;;-2.40;88.63;101951.25;5090665;28;20477;-73
2022/03/05 05:19:49;;;;;;;0.40;0.30;;;;;;;-2.40;88.94;101953.91;5093411;28;20420;-72
2022/03/05 05:22:15;;;;;;;0.40;0.30;;;;;;;-2.47;89.34;101953.00;5090655;28;20810;-72
2022/03/05 05:24:42;;;;;;;0.40;0.30;;;;;;;-2.43;89.45;101949.81;5092065;28;20480;-71
2022/03/05 05:27:08;;;;;;;0.40;0.30;;;;;;;-2.50;88.79;101948.88;5092482;28;20479;-71
2022/03/05 05:29:36;;;;;;;0.40;0.30;;;;;;;-2.57;88.98;101948.78;5092434;28;20455;-71
2022/03/05 05:32:02;;;;;;;0.40;0.30;;;;;;;-2.57;88.69;101950.56;5093347;28;20440;-72
2022/03/05 05:34:29;;;;;;;0.40;0.30;;;;;;;-2.60;89.22;101957.09;5090381;28;20471;-72
2022/03/05 05:36:56;;;;;;;0.40;0.30;;;;;;;-2.64;88.73;101953.16;5093474;28;20433;-72
2022/03/05 05:39:22;;;;;;;0.40;0.30;;;;;;;-2.66;88.17;101955.13;5084771;28;20467;-71
2022/03/05 05:41:49;;;;;;;0.40;0.30;;;;;;;-2.71;88.72;101962.81;5089449;28;20510;-72
2022/03/05 05:44:15;;;;;;;0.40;0.30;;;;;;;-2.66;89.50;101959.63;5089302;28;20989;-72
2022/03/05 05:46:43;;;;;;;0.40;0.30;;;;;;;-2.78;89.01;101955.78;5093093;28;20536;-71
2022/03/05 05:49:09;;;;;;;0.40;0.30;;;;;;;-2.69;89.73;101967.94;5091057;28;20464;-73
2022/03/05 05:51:36;;;;;;;0.40;0.30;;;;;;;-2.73;89.04;101970.13;5083571;28;20453;-72
2022/03/05 05:54:03;;;;;;;0.40;0.30;;;;;;;-2.62;89.00;101956.44;5087173;28;20481;-74
2022/03/05 05:56:30;;;;;;;0.40;0.30;;;;;;;-2.62;88.61;101963.56;5092160;28;20829;-73
2022/03/05 05:58:56;;;;;;;0.40;0.30;;;;;;;-2.70;89.76;101960.97;5092840;28;20451;-72
2022/03/05 06:01:24;;;;;;;0.40;0.40;;;;;;;-2.67;90.48;101969.41;5091451;28;20464;-73
2022/03/05 06:03:52;;;;;;;0.40;0.30;;;;;;;-2.59;91.29;101971.97;5081556;28;20487;-73
2022/03/05 06:06:19;;;;;;;0.40;0.30;;;;;;;-2.55;89.94;101965.31;5082802;28;20989;-72
2022/03/05 06:08:45;;;;;;;0.40;0.30;;;;;;;-2.49;89.69;101962.94;5090795;28;20465;-73
2022/03/05 06:11:12;;;;;;;0.40;0.30;;;;;;;-2.55;88.71;101967.16;5084766;28;21001;-72
2022/03/05 06:13:38;;;;;;;0.40;0.30;;;;;;;-2.58;88.99;101978.09;5077630;28;20445;-73
2022/03/05 06:16:06;;;;;;;0.40;0.30;;;;;;;-2.56;89.86;101976.13;5089451;28;20444;-73
2022/03/05 06:18:33;;;;;;;0.40;0.30;;;;;;;-2.54;89.10;101979.41;5096229;28;20459;-73
2022/03/05 06:21:01;;;;;;;0.40;0.30;;;;;;;-2.55;89.26;101983.06;5092186;28;20465;-73
2022/03/05 06:23:30;;;;;;;0.40;0.30;;;;;;;-2.55;88.77;101980.41;5096234;28;20479;-72
2022/03/05 06:25:56;;;;;;;0.40;0.40;;;;;;;-2.57;89.59;101983.25;5095035;28;20868;-72
2022/03/05 06:28:22;;;;;;;0.40;0.30;;;;;;;-2.61;89.10;101984.63;5092361;28;20468;-73
2022/03/05 06:30:49;;;;;;;0.40;0.30;;;;;;;-2.61;90.01;101981.16;5090528;28;20842;-73
2022/03/05 06:33:15;;;;;;;0.40;0.30;;;;;;;-2.64;90.48;101994.75;5091025;28;20468;-72
2022/03/05 06:35:42;;;;;;;0.40;0.30;;;;;;;-2.55;90.13;101988.38;5090999;28;20484;-73
2022/03/05 06:38:10;;;;;;;0.40;0.30;;;;;;;-2.49;90.03;101998.25;5087817;28;20467;-73
2022/03/05 06:40:36;;;;;;;0.40;0.30;;;;;;;-2.46;89.94;101997.91;5091404;28;20464;-72
2022/03/05 06:43:03;;;;;;;0.40;0.30;;;;;;;-2.37;90.29;101993.34;5094554;28;20464;-73
2022/03/05 06:45:29;;;;;;;0.40;0.37;;;;;;;-2.34;89.93;101993.81;5090992;28;21004;-72
2022/03/05 06:47:56;;;;;;;0.40;0.30;;;;;;;-2.30;90.56;102005.72;5091425;28;20880;-73
2022/03/05 06:50:22;;;;;;;0.40;0.30;;;;;;;-2.19;90.51;102000.97;5089506;28;21057;-72
2022/03/05 06:52:49;;;;;;;0.40;0.30;;;;;;;-2.18;90.99;102008.72;5091044;28;20878;-73
2022/03/05 06:55:17;;;;;;;0.40;0.30;;;;;;;-2.14;90.75;102007.38;5090657;28;20476;-73
2022/03/05 06:57:44;;;;;;;0.40;0.30;;;;;;;-2.02;91.03;102010.41;5090705;28;20502;-74
2022/03/05 07:00:13;;;;;;;0.40;0.30;;;;;;;-1.93;90.84;102006.66;5085901;28;20976;-74
2022/03/05 07:02:39;;;;;;;0.50;0.40;;;;;;;-1.87;91.28;102008.56;5090316;28;20464;-74
2022/03/05 07:05:06;;;;;;;0.40;0.30;;;;;;;-1.73;91.48;102009.56;5092990;28;20480;-73
2022/03/05 07:07:33;;;;;;;0.40;0.30;;;;;;;-1.62;91.58;102005.63;5095591;28;20483;-74
2022/03/05 07:09:59;;;;;;;0.40;0.30;;;;;;;-1.54;92.28;102003.69;5088694;28;20449;-73
2022/03/05 07:12:27;;;;;;;0.40;0.30;;;;;;;-1.50;92.98;102004.16;5095708;28;20471;-72
2022/03/05 07:14:53;;;;;;;0.40;0.30;;;;;;;-1.45;93.44;102012.38;5094593;28;20526;-73
2022/03/05 07:17:20;;;;;;;0.40;0.30;;;;;;;-1.28;92.92;102008.50;5095324;28;20578;-72
2022/03/05 07:19:46;;;;;;;0.40;0.40;;;;;;;-1.19;92.81;102016.38;5093680;28;20961;-73
2022/03/05 07:22:13;;;;;;;0.40;0.30;;;;;;;-1.15;93.29;102007.81;5095392;28;20463;-72
2022/03/05 07:24:40;;;;;;;0.40;0.30;;;;;;;-1.01;93.65;102003.47;5093556;28;20485;-73
2022/03/05 07:27:06;;;;;;;0.40;0.30;;;;;;;-0.88;93.53;102014.25;5094199;28;20488;-74
2022/03/05 07:29:34;;;;;;;0.40;0.30;;;;;;;-0.77;93.85;102012.91;5095331;28;20441;-70
2022/03/05 07:32:03;;;;;;;4.00;3.80;;;;;;;-0.60;94.01;102010.81;5094158;28;20456;-72
2022/03/05 07:34:30;;;;;;;0.40;0.30;;;;;;;-0.50;94.46;102011.28;5093664;28;20468;-72
2022/03/05 07:36:56;;;;;;;0.40;0.30;;;;;;;-0.41;95.36;102019.97;5086650;28;20452;-72
2022/03/05 07:39:23;;;;;;;0.40;0.30;;;;;;;-0.31;95.35;102015.97;5094902;28;20976;-72
2022/03/05 07:41:49;;;;;;;0.40;0.30;;;;;;;-0.19;95.26;102018.09;5088299;28;20818;-72
2022/03/05 07:44:16;;;;;;;0.40;0.30;;;;;;;-0.14;95.40;102029.78;5094932;28;20468;-72
2022/03/05 07:46:44;;;;;;;0.40;0.30;;;;;;;-0.08;95.42;102033.53;5093945;28;20492;-73
2022/03/05 07:49:10;;;;;;;0.40;0.30;;;;;;;0.05;95.77;102030.13;5095022;28;20505;-72
2022/03/05 07:51:37;;;;;;;0.40;0.30;;;;;;;0.05;96.25;102028.28;5090547;28;20831;-72
2022/03/05 07:54:04;;;;;;;0.40;0.30;;;;;;;0.16;96.46;102027.72;5092851;28;21013;-73
2022/03/05 07:56:30;;;;;;;0.40;0.30;;;;;;;0.22;96.32;102032.28;5088599;28;20452;-73
2022/03/05 07:58:57;;;;;;;0.40;0.30;;;;;;;0.31;96.25;102035.63;5082281;28;20457;-69
2022/03/05 08:01:23;;;;;;;0.40;0.30;;;;;;;0.42;96.47;102034.22;5084493;28;20468;-74
2022/03/05 08:03:51;;;;;;;0.40;0.30;;;;;;;0.50;96.01;102028.75;5082800;28;20484;-72
2022/03/05 08:06:17;;;;;;;0.40;0.30;;;;;;;0.58;95.89;102031.25;5084267;28;20480;-71
2022/03/05 08:08:44;;;;;;;1.73;1.63;;;;;;;0.66;95.67;102030.22;5088097;28;20972;-71
2022/03/05 08:11:11;;;;;;;0.40;0.30;;;;;;;0.67;95.87;102029.22;5085623;28;20476;-71
2022/03/05 08:13:38;;;;;;;0.40;0.30;;;;;;;0.73;95.53;102025.75;5083920;28;20449;-71
2022/03/05 08:16:05;;;;;;;0.40;0.30;;;;;;;0.85;95.25;102032.16;5084134;28;20456;-71
2022/03/05 08:18:31;;;;;;;0.40;0.30;;;;;;;0.95;95.38;102034.44;5081308;28;20452;-70
2022/03/05 08:20:59;;;;;;;0.40;0.30;;;;;;;1.02;94.93;102037.94;5083769;28;20460;-70
2022/03/05 08:23:25;;;;;;;0.40;0.30;;;;;;;1.07;95.10;102038.16;5082490;28;20969;-71
2022/03/05 08:25:51;;;;;;;0.40;0.30;;;;;;;1.11;95.32;102028.72;5081625;28;20461;-71
2022/03/05 08:28:20;;;;;;;0.40;0.30;;;;;;;1.17;95.33;102033.25;5081733;28;20483;-71
2022/03/05 08:30:46;;;;;;;14.67;13.33;;;;;;;1.25;95.41;102029.56;5081087;28;20532;-71
2022/03/05 08:33:13;;;;;;;0.50;0.40;;;;;;;1.39;94.81;102033.91;5084992;28;20468;-70
2022/03/05 08:35:39;;;;;;;0.40;0.30;;;;;;;1.51;93.71;102039.47;5082346;28;20460;-71
2022/03/05 08:38:07;;;;;;;0.40;0.30;;;;;;;1.56;93.71;102039.66;5082423;28;20459;-70
2022/03/05 08:40:33;;;;;;;0.40;0.30;;;;;;;1.67;93.40;102039.03;5084344;28;20445;-70
2022/03/05 08:43:00;;;;;;;0.40;0.30;;;;;;;1.76;92.82;102036.97;5084913;28;20460;-73
2022/03/05 08:45:27;;;;;;;0.40;0.30;;;;;;;1.83;92.33;102039.66;5085603;28;20453;-71
2022/03/05 08:47:53;;;;;;;0.40;0.30;;;;;;;1.94;91.57;102036.34;5085599;28;20480;-71
2022/03/05 08:50:20;;;;;;;0.40;0.30;;;;;;;2.02;91.06;102028.13;5085317;28;21022;-71
2022/03/05 08:52:46;;;;;;;1.80;1.70;;;;;;;2.10;90.90;102027.91;5089270;28;20464;-71
2022/03/05 08:55:16;;;;;;;0.40;0.30;;;;;;;2.18;89.80;102038.38;5091892;28;20476;-71
2022/03/05 08:57:43;;;;;;;0.40;0.30;;;;;;;2.24;89.97;102037.53;5087479;28;20838;-71
2022/03/05 09:00:13;;;;;;;0.40;0.30;;;;;;;2.34;89.56;102036.25;5082082;28;20453;-72
2022/03/05 09:02:39;;;;;;;4.00;3.80;;;;;;;2.41;88.71;102039.75;5089884;28;20456;-70
2022/03/05 09:05:06;;;;;;;0.40;0.30;;;;;;;2.46;88.89;102040.75;5089758;28;20476;-71
2022/03/05 09:07:33;;;;;;;0.40;0.30;;;;;;;2.56;88.71;102039.47;5084296;28;20488;-71
2022/03/05 09:09:59;;;;;;;0.40;0.30;;;;;;;2.61;88.12;102029.81;5083857;28;20962;-71
2022/03/05 09:12:27;;;;;;;0.40;0.30;;;;;;;2.71;87.61;102037.38;5084082;28;20457;-71
2022/03/05 09:14:53;;;;;;;0.40;0.30;;;;;;;2.77;87.01;102033.84;5092206;28;20529;-71
2022/03/05 09:17:20;;;;;;;0.40;0.30;;;;;;;2.87;86.69;102038.72;5091755;28;20448;-70
2022/03/05 09:19:46;;;;;;;0.40;0.30;;;;;;;2.91;86.18;102035.41;5078064;28;20455;-70
2022/03/05 09:22:13;;;;;;;0.40;0.30;;;;;;;2.82;84.46;102034.00;5092832;28;20444;-71
2022/03/05 09:24:39;;;;;;;0.40;0.30;;;;;;;2.92;84.67;102034.41;5076917;28;20523;-71
2022/03/05 09:27:06;;;;;;;0.40;0.30;;;;;;;3.03;84.28;102031.03;5079062;28;20503;-71
2022/03/05 09:29:34;;;;;;;0.60;0.30;;;;;;;3.12;83.84;102030.78;5080921;28;20444;-70
2022/03/05 09:32:00;;;;;;;0.40;0.30;;;;;;;3.22;83.82;102028.44;5084382;28;20467;-73
2022/03/05 09:34:30;;;;;;;0.40;0.30;;;;;;;3.19;83.55;102029.69;5082784;28;20941;-74
2022/03/05 09:37:06;;;;;;;0.40;0.30;;;;;;;3.26;83.49;102033.13;5083275;28;20828;-73
2022/03/05 09:39:32;;;;;;;0.40;0.30;;;;;;;3.29;82.46;102024.69;5091876;28;20471;-73
2022/03/05 09:41:59;;;;;;;0.40;0.30;;;;;;;3.30;82.36;102022.81;5083879;28;20528;-72
2022/03/05 09:44:26;;;;;;;0.40;0.30;;;;;;;3.31;81.82;102023.63;5080107;28;20470;-74
2022/03/05 09:46:55;;;;;;;0.40;0.30;;;;;;;3.36;81.30;102021.94;5086234;28;20485;-72
2022/03/05 09:49:24;;;;;;;0.40;0.30;;;;;;;3.43;80.42;102024.59;5092465;28;20480;-72
2022/03/05 09:51:50;;;;;;;0.40;0.30;;;;;;;3.53;81.32;102030.28;5080580;28;20464;-71
2022/03/05 09:54:16;;;;;;;0.40;0.30;;;;;;;3.62;81.33;102030.81;5091679;28;20525;-73
2022/03/05 09:56:43;;;;;;;0.40;0.30;;;;;;;3.64;81.07;102029.56;5088539;28;20853;-71
2022/03/05 09:59:10;;;;;;;0.40;0.30;;;;;;;3.67;80.63;102025.63;5084043;28;20505;-71
2022/03/05 10:01:37;;;;;;;0.40;0.30;;;;;;;3.69;80.66;102027.06;5088293;28;20479;-70
2022/03/05 10:04:05;;;;;;;0.40;0.30;;;;;;;3.78;81.16;102027.59;5083402;28;20468;-70
2022/03/05 10:06:31;;;;;;;0.40;0.30;;;;;;;3.90;79.60;102030.38;5095652;28;20463;-70
2022/03/05 10:08:58;;;;;;;0.40;0.30;;;;;;;3.89;77.95;102029.53;5095564;28;20491;-70
2022/03/05 10:11:26;;;;;;;0.77;0.77;;;;;;;3.96;78.23;102024.13;5092545;28;20452;-70
2022/03/05 10:13:52;;;;;;;0.40;0.30;;;;;;;4.08;77.92;102032.28;5091957;28;20479;-70
2022/03/05 10:16:26;;;;;;;0.40;0.30;;;;;;;4.10;76.97;102031.00;5087632;28;20448;-70
2022/03/05 10:18:53;;;;;;;0.40;0.30;;;;;;;4.13;76.35;102024.38;5091168;28;20518;-70
2022/03/05 10:21:28;;;;;;;0.40;0.30;;;;;;;4.20;76.72;102020.56;5095904;28;20444;-69
2022/03/05 10:24:05;;;;;;;0.40;0.30;;;;;;;4.29;76.25;102024.63;5095946;28;20498;-70
2022/03/05 10:26:51;;;;;;;0.40;0.30;;;;;;;4.42;76.33;102022.81;5095709;28;20416;-69
2022/03/05 10:29:22;;;;;;;0.40;0.30;;;;;;;4.41;74.59;102016.63;5095847;28;20467;-70
2022/03/05 10:31:55;;;;;;;0.40;0.30;;;;;;;4.54;74.13;102015.66;5095985;28;20475;-70
2022/03/05 10:34:22;;;;;;;0.40;0.30;;;;;;;4.59;73.06;102014.97;5095744;28;20977;-70
2022/03/05 10:36:59;;;;;;;0.70;0.70;;;;;;;4.67;73.53;102012.81;5096063;28;20493;-70
2022/03/05 10:39:26;;;;;;;0.40;0.30;;;;;;;4.74;74.03;102008.19;5096056;28;20456;-69
2022/03/05 10:41:54;;;;;;;0.40;0.30;;;;;;;4.86;73.35;102012.75;5096399;28;20887;-70
2022/03/05 10:44:21;;;;;;;0.40;0.30;;;;;;;4.96;73.36;102015.75;5096134;28;20472;-70
2022/03/05 10:46:54;;;;;;;1.07;1.07;;;;;;;5.09;71.94;102007.50;5096204;28;20462;-70
2022/03/05 10:49:22;;;;;;;0.40;0.30;;;;;;;5.31;71.12;102000.53;5096152;28;20464;-70
2022/03/05 10:51:51;;;;;;;0.40;0.30;;;;;;;5.31;68.25;102005.91;5096311;28;20445;-70
2022/03/05 10:54:27;;;;;;;0.40;0.30;;;;;;;5.16;68.48;101992.06;5095910;28;20499;-70
2022/03/05 10:56:56;;;;;;;0.40;0.30;;;;;;;5.30;69.13;101993.50;5096096;28;20420;-70
2022/03/05 10:59:22;;;;;;;0.40;0.30;;;;;;;5.50;70.09;101997.75;5095862;28;20876;-70
2022/03/05 11:01:49;;;;;;;0.40;0.30;;;;;;;5.72;70.34;101996.13;5095869;28;20501;-70
2022/03/05 11:04:17;;;;;;;0.40;0.30;;;;;;;5.95;68.66;101989.16;5095828;28;20468;-70
2022/03/05 11:06:45;;;;;;;0.40;0.27;;;;;;;5.92;64.83;101990.41;5095771;28;20436;-70
2022/03/05 11:09:12;;;;;;;0.50;0.40;;;;;;;6.15;66.55;101994.13;5095585;28;20484;-70
2022/03/05 11:11:42;;;;;;;0.40;0.30;;;;;;;6.31;65.87;101990.72;5095687;28;20447;-70
2022/03/05 11:14:13;;;;;;;0.40;0.20;;;;;;;6.43;64.58;101991.50;5095249;28;20464;-70
2022/03/05 11:16:39;;;;;;;0.40;0.30;;;;;;;6.54;64.21;101987.13;5095426;28;20481;-70
2022/03/05 11:19:06;;;;;;;0.40;0.30;;;;;;;6.70;63.40;101991.78;5095530;28;20502;-70
2022/03/05 11:21:32;;;;;;;0.40;0.20;;;;;;;6.90;62.98;101987.81;5095453;28;20856;-70
2022/03/05 11:24:00;;;;;;;0.40;0.30;;;;;;;6.99;61.05;101980.97;5095158;28;20461;-70
2022/03/05 11:26:29;;;;;;;0.40;0.30;;;;;;;7.18;60.75;101986.97;5095482;28;20452;-70
2022/03/05 11:28:58;;;;;;;0.40;0.30;;;;;;;7.43;61.03;101986.56;5095293;28;20570;-70